createdAt,value
2023-12-23T00:00:04.568Z,5.01
2023-12-23T00:00:34.620Z,5.01
2023-12-23T00:01:04.727Z,4.99
2023-12-23T00:01:35.166Z,4.97
2023-12-23T00:02:05.167Z,4.97
2023-12-23T00:02:34.519Z,4.99
2023-12-23T00:03:07.256Z,5.01
2023-12-23T00:03:52.311Z,5.01
2023-12-23T00:04:04.425Z,5.02
2023-12-23T00:04:35.199Z,5.04
2023-12-23T00:05:04.455Z,5.04
2023-12-23T00:05:34.489Z,5.02
2023-12-23T00:06:04.342Z,5.04
2023-12-23T00:06:34.239Z,5.02
2023-12-23T00:07:04.653Z,5.04
2023-12-23T00:07:34.267Z,5.04
2023-12-23T00:08:04.182Z,5.04
2023-12-23T00:08:34.308Z,5.04
2023-12-23T00:09:07.108Z,5.02
2023-12-23T00:09:52.261Z,5.04
2023-12-23T00:10:04.260Z,5.02
2023-12-23T00:10:34.234Z,5.02
2023-12-23T00:11:04.223Z,5.02
2023-12-23T00:11:34.066Z,5.02
2023-12-23T00:12:04.136Z,5.02
2023-12-23T00:12:34.203Z,5.01
2023-12-23T00:13:04.082Z,4.99
2023-12-23T00:13:34.125Z,5.05
2023-12-23T00:14:04.104Z,5.02
2023-12-23T00:14:34.065Z,5.04
2023-12-23T00:15:07.585Z,5.04
2023-12-23T00:15:52.181Z,5.04
2023-12-23T00:16:04.040Z,5.02
2023-12-23T00:16:34.135Z,5.05
2023-12-23T00:17:04.363Z,5.04
2023-12-23T00:17:34.202Z,5.02
2023-12-23T00:18:04.642Z,5.02
2023-12-23T00:18:34.137Z,5.02
2023-12-23T00:19:04.196Z,5.02
2023-12-23T00:19:34.126Z,5.02
2023-12-23T00:20:04.255Z,5.05
2023-12-23T00:20:34.192Z,5.05
2023-12-23T00:21:07.199Z,5.05
2023-12-23T00:21:52.301Z,5.05
2023-12-23T00:22:03.963Z,5.05
2023-12-23T00:22:33.947Z,5.02
2023-12-23T00:23:04.026Z,5.04
2023-12-23T00:23:33.955Z,5.02
2023-12-23T00:24:03.980Z,5.02
2023-12-23T00:24:34.088Z,5.01
2023-12-23T00:25:04.095Z,4.97
2023-12-23T00:25:34.004Z,5.01
2023-12-23T00:26:04.135Z,5.01
2023-12-23T00:26:34.104Z,5.01
2023-12-23T00:27:07.066Z,4.99
2023-12-23T00:27:52.389Z,4.97
2023-12-23T00:28:03.956Z,4.99
2023-12-23T00:28:34.035Z,5.01
2023-12-23T00:29:04.025Z,4.97
2023-12-23T00:29:33.923Z,4.99
2023-12-23T00:30:04.052Z,4.96
2023-12-23T00:30:33.970Z,4.96
2023-12-23T00:31:03.961Z,4.94
2023-12-23T00:31:33.981Z,4.93
2023-12-23T00:32:04.055Z,4.91
2023-12-23T00:32:33.885Z,4.90
2023-12-23T00:33:07.094Z,4.87
2023-12-23T00:33:52.073Z,4.87
2023-12-23T00:34:03.844Z,4.86
2023-12-23T00:34:33.907Z,4.84
2023-12-23T00:35:03.897Z,4.84
2023-12-23T00:35:33.892Z,4.80
2023-12-23T00:36:03.845Z,4.77
2023-12-23T00:36:33.826Z,4.79
2023-12-23T00:37:03.840Z,4.77
2023-12-23T00:37:34.029Z,4.75
2023-12-23T00:38:03.988Z,4.71
2023-12-23T00:38:33.914Z,4.71
2023-12-23T00:39:07.021Z,4.69
2023-12-23T00:39:51.953Z,4.67
2023-12-23T00:40:03.857Z,4.69
2023-12-23T00:40:33.829Z,4.67
2023-12-23T00:41:03.834Z,4.65
2023-12-23T00:41:33.773Z,4.64
2023-12-23T00:42:03.783Z,4.62
2023-12-23T00:42:33.875Z,4.62
2023-12-23T00:43:03.785Z,4.59
2023-12-23T00:43:33.827Z,4.61
2023-12-23T00:44:03.732Z,4.61
2023-12-23T00:44:33.731Z,4.61
2023-12-23T00:45:06.742Z,4.62
2023-12-23T00:45:51.870Z,4.62
2023-12-23T00:46:03.731Z,4.62
2023-12-23T00:46:33.740Z,4.61
2023-12-23T00:47:03.734Z,4.62
2023-12-23T00:47:36.439Z,4.61
2023-12-23T00:48:03.813Z,4.57
2023-12-23T00:48:33.765Z,4.61
2023-12-23T00:49:03.889Z,4.61
2023-12-23T00:49:33.718Z,4.62
2023-12-23T00:50:03.771Z,4.61
2023-12-23T00:50:33.651Z,4.61
2023-12-23T00:51:06.682Z,4.62
2023-12-23T00:51:51.804Z,4.61
2023-12-23T00:52:03.694Z,4.61
2023-12-23T00:52:33.822Z,4.61
2023-12-23T00:53:03.697Z,4.61
2023-12-23T00:53:33.753Z,4.57
2023-12-23T00:54:03.621Z,4.57
2023-12-23T00:54:33.676Z,4.57
2023-12-23T00:55:03.687Z,4.56
2023-12-23T00:55:33.718Z,4.54
2023-12-23T00:56:03.673Z,4.51
2023-12-23T00:56:34.515Z,4.51
2023-12-23T00:57:06.660Z,4.51
2023-12-23T00:57:51.943Z,4.49
2023-12-23T00:58:03.624Z,4.49
2023-12-23T00:58:33.684Z,4.49
2023-12-23T00:59:03.637Z,4.49
2023-12-23T00:59:33.567Z,4.49
2023-12-23T01:00:03.607Z,4.46
2023-12-23T01:00:33.657Z,4.46
2023-12-23T01:01:03.627Z,4.46
2023-12-23T01:01:33.722Z,4.43
2023-12-23T01:02:03.632Z,4.42
2023-12-23T01:02:33.533Z,4.43
2023-12-23T01:03:06.550Z,4.43
2023-12-23T01:03:51.671Z,4.39
2023-12-23T01:04:03.594Z,4.39
2023-12-23T01:04:33.502Z,4.39
2023-12-23T01:05:03.608Z,4.39
2023-12-23T01:05:33.494Z,4.36
2023-12-23T01:06:03.522Z,4.38
2023-12-23T01:06:33.523Z,4.42
2023-12-23T01:07:03.508Z,4.36
2023-12-23T01:07:33.481Z,4.38
2023-12-23T01:08:03.516Z,4.34
2023-12-23T01:08:33.470Z,4.31
2023-12-23T01:09:06.472Z,4.32
2023-12-23T01:09:51.597Z,4.31
2023-12-23T01:10:03.463Z,4.32
2023-12-23T01:10:33.618Z,4.28
2023-12-23T01:11:03.501Z,4.26
2023-12-23T01:11:33.521Z,4.26
2023-12-23T01:12:03.430Z,4.25
2023-12-23T01:12:33.439Z,4.24
2023-12-23T01:13:03.418Z,4.21
2023-12-23T01:13:33.579Z,4.18
2023-12-23T01:14:03.470Z,4.18
2023-12-23T01:14:33.432Z,4.17
2023-12-23T01:15:07.036Z,4.16
2023-12-23T01:15:51.693Z,4.13
2023-12-23T01:16:03.396Z,4.11
2023-12-23T01:16:33.386Z,4.08
2023-12-23T01:17:03.429Z,4.08
2023-12-23T01:17:33.390Z,4.07
2023-12-23T01:18:03.479Z,4.08
2023-12-23T01:18:33.490Z,4.07
2023-12-23T01:19:03.417Z,4.06
2023-12-23T01:19:33.366Z,4.06
2023-12-23T01:20:03.438Z,4.06
2023-12-23T01:20:33.374Z,4.06
2023-12-23T01:21:06.356Z,4.06
2023-12-23T01:21:51.455Z,4.04
2023-12-23T01:22:03.363Z,4.00
2023-12-23T01:22:33.317Z,4.02
2023-12-23T01:23:03.384Z,4.00
2023-12-23T01:23:33.297Z,3.99
2023-12-23T01:24:03.322Z,4.00
2023-12-23T01:24:33.316Z,3.99
2023-12-23T01:25:03.334Z,3.99
2023-12-23T01:25:33.295Z,3.99
2023-12-23T01:26:03.353Z,3.98
2023-12-23T01:26:33.282Z,4.02
2023-12-23T01:27:06.291Z,3.99
2023-12-23T01:27:51.739Z,4.00
2023-12-23T01:28:03.261Z,4.02
2023-12-23T01:28:33.255Z,4.04
2023-12-23T01:29:03.290Z,4.02
2023-12-23T01:29:33.245Z,4.02
2023-12-23T01:30:03.279Z,4.00
2023-12-23T01:30:33.259Z,4.02
2023-12-23T01:31:03.397Z,4.00
2023-12-23T01:31:33.253Z,4.02
2023-12-23T01:32:03.249Z,4.06
2023-12-23T01:32:33.292Z,4.07
2023-12-23T01:33:06.292Z,4.07
2023-12-23T01:33:51.410Z,4.07
2023-12-23T01:34:03.216Z,4.08
2023-12-23T01:34:33.684Z,4.07
2023-12-23T01:35:03.222Z,4.10
2023-12-23T01:35:33.254Z,4.10
2023-12-23T01:36:03.188Z,4.11
2023-12-23T01:36:33.222Z,4.11
2023-12-23T01:37:03.213Z,4.13
2023-12-23T01:37:33.248Z,4.13
2023-12-23T01:38:05.663Z,4.10
2023-12-23T01:38:33.179Z,4.08
2023-12-23T01:39:06.167Z,4.08
2023-12-23T01:39:51.250Z,4.07
2023-12-23T01:40:03.184Z,4.06
2023-12-23T01:40:33.135Z,4.06
2023-12-23T01:41:03.250Z,4.04
2023-12-23T01:41:33.130Z,4.06
2023-12-23T01:42:03.128Z,4.06
2023-12-23T01:42:33.091Z,4.04
2023-12-23T01:43:03.147Z,4.04
2023-12-23T01:43:34.604Z,4.04
2023-12-23T01:44:03.696Z,4.07
2023-12-23T01:44:33.086Z,4.08
2023-12-23T01:45:06.606Z,4.10
2023-12-23T01:45:51.200Z,4.13
2023-12-23T01:46:03.062Z,4.16
2023-12-23T01:46:33.058Z,4.18
2023-12-23T01:47:03.080Z,4.18
2023-12-23T01:47:33.071Z,4.20
2023-12-23T01:48:03.124Z,4.18
2023-12-23T01:48:33.206Z,4.20
2023-12-23T01:49:03.081Z,4.21
2023-12-23T01:49:33.045Z,4.25
2023-12-23T01:50:03.060Z,4.26
2023-12-23T01:50:33.008Z,4.26
2023-12-23T01:51:06.098Z,4.28
2023-12-23T01:51:51.188Z,4.29
2023-12-23T01:52:03.001Z,4.28
2023-12-23T01:52:33.016Z,4.29
2023-12-23T01:53:03.202Z,4.26
2023-12-23T01:53:33.102Z,4.28
2023-12-23T01:54:03.032Z,4.31
2023-12-23T01:54:32.973Z,4.31
2023-12-23T01:55:02.986Z,4.34
2023-12-23T01:55:33.001Z,4.35
2023-12-23T01:56:03.040Z,4.36
2023-12-23T01:56:32.992Z,4.39
2023-12-23T01:57:05.988Z,4.38
2023-12-23T01:57:51.258Z,4.39
2023-12-23T01:58:03.506Z,4.43
2023-12-23T01:58:33.916Z,4.42
2023-12-23T01:59:02.964Z,4.43
2023-12-23T01:59:32.976Z,4.46
2023-12-23T02:00:02.983Z,4.47
2023-12-23T02:00:33.075Z,4.47
2023-12-23T02:01:02.992Z,4.50
2023-12-23T02:01:33.009Z,4.51
2023-12-23T02:02:02.981Z,4.51
2023-12-23T02:02:32.963Z,4.53
2023-12-23T02:03:06.012Z,4.53
2023-12-23T02:03:51.026Z,4.54
2023-12-23T02:04:02.969Z,4.54
2023-12-23T02:04:32.866Z,4.54
2023-12-23T02:05:02.992Z,4.54
2023-12-23T02:05:32.987Z,4.53
2023-12-23T02:06:02.966Z,4.53
2023-12-23T02:06:32.895Z,4.56
2023-12-23T02:07:02.889Z,4.54
2023-12-23T02:07:32.868Z,4.54
2023-12-23T02:08:02.919Z,4.54
2023-12-23T02:08:32.883Z,4.56
2023-12-23T02:09:05.867Z,4.57
2023-12-23T02:09:50.975Z,4.57
2023-12-23T02:10:02.838Z,4.57
2023-12-23T02:10:32.851Z,4.57
2023-12-23T02:11:03.010Z,4.57
2023-12-23T02:11:32.929Z,4.57
2023-12-23T02:12:02.786Z,4.59
2023-12-23T02:12:32.774Z,4.59
2023-12-23T02:13:09.995Z,4.61
2023-12-23T02:13:32.829Z,4.61
2023-12-23T02:14:02.832Z,4.59
2023-12-23T02:14:32.852Z,4.61
2023-12-23T02:15:05.861Z,4.57
2023-12-23T02:15:50.910Z,4.59
2023-12-23T02:16:02.776Z,4.59
2023-12-23T02:16:32.746Z,4.57
2023-12-23T02:17:02.759Z,4.59
2023-12-23T02:17:32.842Z,4.59
2023-12-23T02:18:02.824Z,4.57
2023-12-23T02:19:02.725Z,4.57
2023-12-23T02:19:32.704Z,4.59
2023-12-23T02:20:02.820Z,4.59
2023-12-23T02:20:32.719Z,4.59
2023-12-23T02:21:05.746Z,4.62
2023-12-23T02:21:50.821Z,4.62
2023-12-23T02:22:02.701Z,4.64
2023-12-23T02:22:32.686Z,4.64
2023-12-23T02:23:02.770Z,4.61
2023-12-23T02:23:32.765Z,4.64
2023-12-23T02:24:02.716Z,4.62
2023-12-23T02:24:32.693Z,4.62
2023-12-23T02:25:02.701Z,4.64
2023-12-23T02:25:32.658Z,4.62
2023-12-23T02:26:02.740Z,4.62
2023-12-23T02:26:32.632Z,4.64
2023-12-23T02:27:05.646Z,4.65
2023-12-23T02:27:51.682Z,4.65
2023-12-23T02:28:02.638Z,4.65
2023-12-23T02:28:32.648Z,4.65
2023-12-23T02:29:02.642Z,4.67
2023-12-23T02:29:32.638Z,4.67
2023-12-23T02:30:02.636Z,4.67
2023-12-23T02:30:32.700Z,4.67
2023-12-23T02:31:02.863Z,4.67
2023-12-23T02:31:32.606Z,4.68
2023-12-23T02:32:02.688Z,4.69
2023-12-23T02:32:33.545Z,4.71
2023-12-23T02:33:05.631Z,4.74
2023-12-23T02:33:50.784Z,4.77
2023-12-23T02:34:02.568Z,4.79
2023-12-23T02:34:32.588Z,4.75
2023-12-23T02:35:02.644Z,4.75
2023-12-23T02:35:32.541Z,4.79
2023-12-23T02:36:02.524Z,4.79
2023-12-23T02:36:32.638Z,4.79
2023-12-23T02:37:02.582Z,4.80
2023-12-23T02:37:32.727Z,4.80
2023-12-23T02:38:02.657Z,4.80
2023-12-23T02:38:32.545Z,4.79
2023-12-23T02:39:06.483Z,4.80
2023-12-23T02:39:50.625Z,4.80
2023-12-23T02:40:02.509Z,4.80
2023-12-23T02:40:32.525Z,4.83
2023-12-23T02:41:02.532Z,4.80
2023-12-23T02:41:33.089Z,4.79
2023-12-23T02:42:02.631Z,4.83
2023-12-23T02:42:32.537Z,4.83
2023-12-23T02:43:02.482Z,4.80
2023-12-23T02:43:32.566Z,4.80
2023-12-23T02:44:02.584Z,4.80
2023-12-23T02:44:32.529Z,4.83
2023-12-23T02:45:05.494Z,4.84
2023-12-23T02:45:50.700Z,4.83
2023-12-23T02:46:02.500Z,4.83
2023-12-23T02:46:32.495Z,4.83
2023-12-23T02:47:02.616Z,4.86
2023-12-23T02:47:32.512Z,4.84
2023-12-23T02:48:02.592Z,4.86
2023-12-23T02:48:32.784Z,4.86
2023-12-23T02:49:02.516Z,4.87
2023-12-23T02:49:32.456Z,4.87
2023-12-23T02:50:02.431Z,4.88
2023-12-23T02:50:32.370Z,4.87
2023-12-23T02:51:05.394Z,4.87
2023-12-23T02:51:50.513Z,4.87
2023-12-23T02:52:02.401Z,4.88
2023-12-23T02:52:32.407Z,4.87
2023-12-23T02:53:02.429Z,4.87
2023-12-23T02:53:32.397Z,4.88
2023-12-23T02:54:02.370Z,4.88
2023-12-23T02:54:32.358Z,4.90
2023-12-23T02:55:02.359Z,4.87
2023-12-23T02:55:32.351Z,4.90
2023-12-23T02:56:02.360Z,4.90
2023-12-23T02:56:32.371Z,4.90
2023-12-23T02:57:05.322Z,4.91
2023-12-23T02:57:51.242Z,4.94
2023-12-23T02:58:02.328Z,4.96
2023-12-23T02:58:32.319Z,4.96
2023-12-23T02:59:02.342Z,4.96
2023-12-23T02:59:35.125Z,4.97
2023-12-23T03:00:02.353Z,4.94
2023-12-23T03:00:32.338Z,4.96
2023-12-23T03:01:02.331Z,4.99
2023-12-23T03:01:32.297Z,4.96
2023-12-23T03:02:02.293Z,4.97
2023-12-23T03:02:32.992Z,4.99
2023-12-23T03:03:05.364Z,4.99
2023-12-23T03:03:50.385Z,4.99
2023-12-23T03:04:02.262Z,4.99
2023-12-23T03:04:32.282Z,4.97
2023-12-23T03:05:03.248Z,4.97
2023-12-23T03:05:32.307Z,4.96
2023-12-23T03:06:02.294Z,4.96
2023-12-23T03:06:32.211Z,4.97
2023-12-23T03:07:02.216Z,4.97
2023-12-23T03:07:32.283Z,4.97
2023-12-23T03:08:02.281Z,4.99
2023-12-23T03:08:32.206Z,4.99
2023-12-23T03:09:05.238Z,4.99
2023-12-23T03:09:50.453Z,5.01
2023-12-23T03:10:02.209Z,4.97
2023-12-23T03:10:32.224Z,4.97
2023-12-23T03:11:02.198Z,4.97
2023-12-23T03:11:32.168Z,4.99
2023-12-23T03:12:02.225Z,4.97
2023-12-23T03:12:32.173Z,5.02
2023-12-23T03:13:02.183Z,5.01
2023-12-23T03:13:32.138Z,5.02
2023-12-23T03:14:02.436Z,5.01
2023-12-23T03:14:32.110Z,5.02
2023-12-23T03:15:05.204Z,5.02
2023-12-23T03:15:50.255Z,5.02
2023-12-23T03:16:02.155Z,5.02
2023-12-23T03:16:32.126Z,5.04
2023-12-23T03:17:02.198Z,5.04
2023-12-23T03:17:32.216Z,5.05
2023-12-23T03:18:02.146Z,5.08
2023-12-23T03:18:32.130Z,5.05
2023-12-23T03:19:02.322Z,5.09
2023-12-23T03:19:32.073Z,5.09
2023-12-23T03:20:02.100Z,5.09
2023-12-23T03:20:32.066Z,5.08
2023-12-23T03:21:05.081Z,5.09
2023-12-23T03:21:50.182Z,5.11
2023-12-23T03:22:02.075Z,5.12
2023-12-23T03:22:32.953Z,5.15
2023-12-23T03:23:02.121Z,5.17
2023-12-23T03:23:32.039Z,5.14
2023-12-23T03:24:02.044Z,5.17
2023-12-23T03:24:32.025Z,5.14
2023-12-23T03:25:02.043Z,5.12
2023-12-23T03:25:32.078Z,5.14
2023-12-23T03:26:02.070Z,5.14
2023-12-23T03:26:31.997Z,5.11
2023-12-23T03:27:05.957Z,5.14
2023-12-23T03:27:50.098Z,5.14
2023-12-23T03:28:02.021Z,5.15
2023-12-23T03:28:31.997Z,5.14
2023-12-23T03:29:02.001Z,5.14
2023-12-23T03:29:31.952Z,5.17
2023-12-23T03:30:02.009Z,5.15
2023-12-23T03:30:31.985Z,5.17
2023-12-23T03:31:02.012Z,5.19
2023-12-23T03:31:31.960Z,5.19
2023-12-23T03:32:01.987Z,5.17
2023-12-23T03:32:31.990Z,5.17
2023-12-23T03:33:05.730Z,5.17
2023-12-23T03:33:50.242Z,5.17
2023-12-23T03:34:01.974Z,5.17
2023-12-23T03:34:31.926Z,5.17
2023-12-23T03:35:01.974Z,5.19
2023-12-23T03:35:31.936Z,5.17
2023-12-23T03:36:01.893Z,5.19
2023-12-23T03:36:31.898Z,5.15
2023-12-23T03:37:01.929Z,5.17
2023-12-23T03:37:31.902Z,5.19
2023-12-23T03:38:01.927Z,5.17
2023-12-23T03:38:31.895Z,5.17
2023-12-23T03:39:04.923Z,5.20
2023-12-23T03:39:50.038Z,5.20
2023-12-23T03:40:02.065Z,5.20
2023-12-23T03:40:31.861Z,5.20
2023-12-23T03:41:01.886Z,5.20
2023-12-23T03:41:31.836Z,5.19
2023-12-23T03:42:01.823Z,5.19
2023-12-23T03:42:31.841Z,5.19
2023-12-23T03:43:01.832Z,5.17
2023-12-23T03:43:31.840Z,5.17
2023-12-23T03:44:01.889Z,5.15
2023-12-23T03:44:31.804Z,5.14
2023-12-23T03:45:04.821Z,5.17
2023-12-23T03:45:49.919Z,5.17
2023-12-23T03:46:01.782Z,5.15
2023-12-23T03:46:31.790Z,5.15
2023-12-23T03:47:01.816Z,5.19
2023-12-23T03:47:31.821Z,5.20
2023-12-23T03:48:01.834Z,5.20
2023-12-23T03:48:31.797Z,5.19
2023-12-23T03:49:01.804Z,5.17
2023-12-23T03:49:31.777Z,5.22
2023-12-23T03:50:01.825Z,5.19
2023-12-23T03:50:31.745Z,5.22
2023-12-23T03:51:05.451Z,5.20
2023-12-23T03:51:49.845Z,5.20
2023-12-23T03:52:01.775Z,5.20
2023-12-23T03:52:31.743Z,5.20
2023-12-23T03:53:01.777Z,5.20
2023-12-23T03:53:31.725Z,5.22
2023-12-23T03:54:02.551Z,5.19
2023-12-23T03:54:31.709Z,5.20
2023-12-23T03:55:01.699Z,5.17
2023-12-23T03:55:31.689Z,5.17
2023-12-23T03:56:01.759Z,5.17
2023-12-23T03:56:31.705Z,5.19
2023-12-23T03:57:04.723Z,5.19
2023-12-23T03:57:50.650Z,5.17
2023-12-23T03:58:01.746Z,5.17
2023-12-23T03:58:31.728Z,5.14
2023-12-23T03:59:01.719Z,5.15
2023-12-23T03:59:32.214Z,5.15
2023-12-23T04:00:01.655Z,5.17
2023-12-23T04:00:31.662Z,5.15
2023-12-23T04:01:01.664Z,5.17
2023-12-23T04:01:40.686Z,5.14
2023-12-23T04:02:01.788Z,5.15
2023-12-23T04:02:31.660Z,5.17
2023-12-23T04:03:05.030Z,5.17
2023-12-23T04:03:49.815Z,5.17
2023-12-23T04:04:01.652Z,5.15
2023-12-23T04:04:31.608Z,5.15
2023-12-23T04:05:01.731Z,5.14
2023-12-23T04:05:31.619Z,5.15
2023-12-23T04:06:03.443Z,5.12
2023-12-23T04:06:31.638Z,5.14
2023-12-23T04:07:01.631Z,5.14
2023-12-23T04:07:31.667Z,5.14
2023-12-23T04:08:02.605Z,5.15
2023-12-23T04:08:31.611Z,5.15
2023-12-23T04:09:04.607Z,5.15
2023-12-23T04:09:49.668Z,5.19
2023-12-23T04:10:01.584Z,5.20
2023-12-23T04:10:31.553Z,5.20
2023-12-23T04:11:02.147Z,5.20
2023-12-23T04:11:31.590Z,5.20
2023-12-23T04:12:01.549Z,5.20
2023-12-23T04:12:31.741Z,5.19
2023-12-23T04:13:01.530Z,5.14
2023-12-23T04:13:31.537Z,5.17
2023-12-23T04:14:01.602Z,5.15
2023-12-23T04:14:31.510Z,5.14
2023-12-23T04:15:04.575Z,5.17
2023-12-23T04:15:50.396Z,5.14
2023-12-23T04:16:01.526Z,5.09
2023-12-23T04:16:32.170Z,5.09
2023-12-23T04:17:01.550Z,5.09
2023-12-23T04:17:31.498Z,5.06
2023-12-23T04:18:01.724Z,5.06
2023-12-23T04:18:33.288Z,5.04
2023-12-23T04:19:02.029Z,5.04
2023-12-23T04:19:31.464Z,5.02
2023-12-23T04:20:01.512Z,5.01
2023-12-23T04:20:31.466Z,4.99
2023-12-23T04:21:04.449Z,4.97
2023-12-23T04:21:50.536Z,4.96
2023-12-23T04:22:01.442Z,4.93
2023-12-23T04:22:31.458Z,4.91
2023-12-23T04:23:03.647Z,4.91
2023-12-23T04:23:31.524Z,4.91
2023-12-23T04:24:01.457Z,4.90
2023-12-23T04:24:31.463Z,4.90
2023-12-23T04:25:01.482Z,4.88
2023-12-23T04:25:31.416Z,4.90
2023-12-23T04:26:01.486Z,4.87
2023-12-23T04:26:31.393Z,4.86
2023-12-23T04:27:04.391Z,4.86
2023-12-23T04:27:49.605Z,4.86
2023-12-23T04:28:01.353Z,4.80
2023-12-23T04:28:31.420Z,4.80
2023-12-23T04:29:01.416Z,4.80
2023-12-23T04:29:31.354Z,4.77
2023-12-23T04:30:01.330Z,4.75
2023-12-23T04:30:31.384Z,4.75
2023-12-23T04:31:01.510Z,4.71
2023-12-23T04:31:31.432Z,4.71
2023-12-23T04:32:01.374Z,4.71
2023-12-23T04:32:31.508Z,4.68
2023-12-23T04:33:04.487Z,4.67
2023-12-23T04:33:49.570Z,4.64
2023-12-23T04:34:01.359Z,4.64
2023-12-23T04:34:31.340Z,4.64
2023-12-23T04:35:01.433Z,4.64
2023-12-23T04:35:31.326Z,4.62
2023-12-23T04:36:01.379Z,4.61
2023-12-23T04:36:31.330Z,4.59
2023-12-23T04:37:01.265Z,4.59
2023-12-23T04:37:31.272Z,4.61
2023-12-23T04:38:01.322Z,4.61
2023-12-23T04:38:31.265Z,4.62
2023-12-23T04:39:05.106Z,4.61
2023-12-23T04:39:49.411Z,4.61
2023-12-23T04:40:01.241Z,4.56
2023-12-23T04:40:31.226Z,4.54
2023-12-23T04:41:01.312Z,4.51
2023-12-23T04:41:31.256Z,4.51
2023-12-23T04:42:01.264Z,4.51
2023-12-23T04:42:31.198Z,4.50
2023-12-23T04:43:01.220Z,4.49
2023-12-23T04:43:31.170Z,4.49
2023-12-23T04:44:01.214Z,4.49
2023-12-23T04:44:31.228Z,4.50
2023-12-23T04:45:05.087Z,4.51
2023-12-23T04:45:49.656Z,4.50
2023-12-23T04:46:01.316Z,4.50
2023-12-23T04:46:31.254Z,4.50
2023-12-23T04:47:01.248Z,4.53
2023-12-23T04:47:31.213Z,4.54
2023-12-23T04:48:01.227Z,4.54
2023-12-23T04:48:31.184Z,4.56
2023-12-23T04:49:01.225Z,4.54
2023-12-23T04:49:31.149Z,4.54
2023-12-23T04:50:01.143Z,4.56
2023-12-23T04:50:31.179Z,4.54
2023-12-23T04:51:04.602Z,4.50
2023-12-23T04:51:49.977Z,4.54
2023-12-23T04:52:01.068Z,4.56
2023-12-23T04:52:31.110Z,4.54
2023-12-23T04:53:01.106Z,4.59
2023-12-23T04:53:31.136Z,4.56
2023-12-23T04:54:01.220Z,4.57
2023-12-23T04:54:31.070Z,4.54
2023-12-23T04:55:01.062Z,4.54
2023-12-23T04:55:31.074Z,4.51
2023-12-23T04:56:01.141Z,4.51
2023-12-23T04:56:31.067Z,4.53
2023-12-23T04:57:04.053Z,4.51
2023-12-23T04:57:49.184Z,4.51
2023-12-23T04:58:02.174Z,4.54
2023-12-23T04:58:31.068Z,4.56
2023-12-23T04:59:01.084Z,4.54
2023-12-23T04:59:31.103Z,4.53
2023-12-23T05:00:01.040Z,4.57
2023-12-23T05:00:31.042Z,4.57
2023-12-23T05:01:01.135Z,4.59
2023-12-23T05:01:31.007Z,4.59
2023-12-23T05:02:01.038Z,4.57
2023-12-23T05:02:31.091Z,4.57
2023-12-23T05:03:04.073Z,4.59
2023-12-23T05:03:49.151Z,4.59
2023-12-23T05:04:00.987Z,4.59
2023-12-23T05:04:30.974Z,4.59
2023-12-23T05:05:01.016Z,4.59
2023-12-23T05:05:31.100Z,4.62
2023-12-23T05:06:00.990Z,4.65
2023-12-23T05:06:30.950Z,4.65
2023-12-23T05:07:00.961Z,4.64
2023-12-23T05:07:30.980Z,4.64
2023-12-23T05:08:01.029Z,4.64
2023-12-23T05:08:31.108Z,4.65
2023-12-23T05:09:03.953Z,4.64
2023-12-23T05:09:49.650Z,4.64
2023-12-23T05:10:00.898Z,4.67
2023-12-23T05:10:30.922Z,4.65
2023-12-23T05:11:00.967Z,4.64
2023-12-23T05:11:30.877Z,4.62
2023-12-23T05:12:00.890Z,4.64
2023-12-23T05:12:30.897Z,4.64
2023-12-23T05:13:00.886Z,4.64
2023-12-23T05:13:30.872Z,4.62
2023-12-23T05:14:00.908Z,4.65
2023-12-23T05:14:31.184Z,4.68
2023-12-23T05:15:03.977Z,4.69
2023-12-23T05:15:49.018Z,4.71
2023-12-23T05:16:00.846Z,4.71
2023-12-23T05:16:30.848Z,4.72
2023-12-23T05:17:00.857Z,4.69
2023-12-23T05:17:31.130Z,4.71
2023-12-23T05:18:00.850Z,4.68
2023-12-23T05:18:30.940Z,4.67
2023-12-23T05:19:00.976Z,4.67
2023-12-23T05:19:30.826Z,4.67
2023-12-23T05:20:00.880Z,4.68
2023-12-23T05:20:30.831Z,4.68
2023-12-23T05:21:03.845Z,4.69
2023-12-23T05:21:49.060Z,4.68
2023-12-23T05:22:00.813Z,4.71
2023-12-23T05:22:30.801Z,4.71
2023-12-23T05:23:01.622Z,4.74
2023-12-23T05:23:30.850Z,4.75
2023-12-23T05:24:00.796Z,4.74
2023-12-23T05:24:30.764Z,4.75
2023-12-23T05:25:00.744Z,4.75
2023-12-23T05:25:30.806Z,4.75
2023-12-23T05:26:00.841Z,4.77
2023-12-23T05:26:30.768Z,4.77
2023-12-23T05:27:03.769Z,4.80
2023-12-23T05:27:48.831Z,4.79
2023-12-23T05:28:00.708Z,4.79
2023-12-23T05:28:30.766Z,4.79
2023-12-23T05:29:00.738Z,4.80
2023-12-23T05:29:30.713Z,4.80
2023-12-23T05:30:00.771Z,4.80
2023-12-23T05:30:30.751Z,4.80
2023-12-23T05:31:00.720Z,4.79
2023-12-23T05:31:30.676Z,4.79
2023-12-23T05:32:00.673Z,4.79
2023-12-23T05:32:32.559Z,4.79
2023-12-23T05:33:03.831Z,4.80
2023-12-23T05:33:50.572Z,4.80
2023-12-23T05:34:00.692Z,4.83
2023-12-23T05:34:30.661Z,4.83
2023-12-23T05:35:00.664Z,4.80
2023-12-23T05:35:30.692Z,4.80
2023-12-23T05:36:00.670Z,4.79
2023-12-23T05:36:30.677Z,4.83
2023-12-23T05:37:00.627Z,4.83
2023-12-23T05:37:30.645Z,4.83
2023-12-23T05:38:04.149Z,4.83
2023-12-23T05:38:30.713Z,4.80
2023-12-23T05:39:05.282Z,4.83
2023-12-23T05:39:50.778Z,4.84
2023-12-23T05:40:00.620Z,4.86
2023-12-23T05:40:30.584Z,4.86
2023-12-23T05:41:00.696Z,4.84
2023-12-23T05:41:30.600Z,4.84
2023-12-23T05:42:00.576Z,4.86
2023-12-23T05:42:30.579Z,4.86
2023-12-23T05:43:00.593Z,4.84
2023-12-23T05:43:30.586Z,4.83
2023-12-23T05:44:00.604Z,4.84
2023-12-23T05:44:30.671Z,4.84
2023-12-23T05:45:03.628Z,4.80
2023-12-23T05:45:50.025Z,4.86
2023-12-23T05:46:00.548Z,4.84
2023-12-23T05:46:30.523Z,4.86
2023-12-23T05:47:00.549Z,4.86
2023-12-23T05:47:30.711Z,4.86
2023-12-23T05:48:00.586Z,4.87
2023-12-23T05:48:30.549Z,4.86
2023-12-23T05:49:03.170Z,4.86
2023-12-23T05:49:30.486Z,4.87
2023-12-23T05:50:00.563Z,4.88
2023-12-23T05:50:30.531Z,4.87
2023-12-23T05:51:03.539Z,4.90
2023-12-23T05:51:48.598Z,4.86
2023-12-23T05:52:00.482Z,4.86
2023-12-23T05:52:30.434Z,4.86
2023-12-23T05:53:00.485Z,4.83
2023-12-23T05:53:30.553Z,4.80
2023-12-23T05:54:00.483Z,4.79
2023-12-23T05:54:30.431Z,4.75
2023-12-23T05:55:00.477Z,4.77
2023-12-23T05:55:30.484Z,4.79
2023-12-23T05:56:01.020Z,4.79
2023-12-23T05:56:30.479Z,4.75
2023-12-23T05:57:03.463Z,4.77
2023-12-23T05:57:48.514Z,4.79
2023-12-23T05:58:00.457Z,4.79
2023-12-23T05:58:30.396Z,4.79
2023-12-23T05:59:00.461Z,4.83
2023-12-23T05:59:30.400Z,4.80
2023-12-23T06:00:00.430Z,4.80
2023-12-23T06:00:30.381Z,4.80
2023-12-23T06:01:00.464Z,4.80
2023-12-23T06:01:30.378Z,4.80
2023-12-23T06:02:01.011Z,4.79
2023-12-23T06:02:30.444Z,4.79
2023-12-23T06:03:03.363Z,4.79
2023-12-23T06:03:48.495Z,4.79
2023-12-23T06:04:00.367Z,4.75
2023-12-23T06:04:30.331Z,4.79
2023-12-23T06:05:00.447Z,4.75
2023-12-23T06:05:30.469Z,4.75
2023-12-23T06:06:00.348Z,4.74
2023-12-23T06:06:30.387Z,4.75
2023-12-23T06:07:00.306Z,4.75
2023-12-23T06:07:30.336Z,4.75
2023-12-23T06:08:00.419Z,4.74
2023-12-23T06:08:30.275Z,4.75
2023-12-23T06:09:03.287Z,4.77
2023-12-23T06:09:48.478Z,4.75
2023-12-23T06:10:00.283Z,4.74
2023-12-23T06:10:33.379Z,4.72
2023-12-23T06:11:01.889Z,4.74
2023-12-23T06:11:30.318Z,4.72
2023-12-23T06:12:00.260Z,4.74
2023-12-23T06:12:30.244Z,4.72
2023-12-23T06:13:00.258Z,4.74
2023-12-23T06:13:30.270Z,4.74
2023-12-23T06:14:00.330Z,4.74
2023-12-23T06:14:30.217Z,4.72
2023-12-23T06:15:03.346Z,4.72
2023-12-23T06:15:49.632Z,4.71
2023-12-23T06:16:00.196Z,4.71
2023-12-23T06:16:30.226Z,4.71
2023-12-23T06:17:00.391Z,4.72
2023-12-23T06:17:30.292Z,4.72
2023-12-23T06:18:01.413Z,4.68
2023-12-23T06:18:30.292Z,4.67
2023-12-23T06:19:00.285Z,4.65
2023-12-23T06:19:30.251Z,4.67
2023-12-23T06:20:00.340Z,4.67
2023-12-23T06:20:30.169Z,4.67
2023-12-23T06:21:03.215Z,4.64
2023-12-23T06:21:48.297Z,4.65
2023-12-23T06:22:00.154Z,4.65
2023-12-23T06:22:30.138Z,4.67
2023-12-23T06:23:02.171Z,4.64
2023-12-23T06:23:30.273Z,4.65
2023-12-23T06:24:00.166Z,4.62
2023-12-23T06:24:31.947Z,4.62
2023-12-23T06:25:00.146Z,4.62
2023-12-23T06:25:30.127Z,4.61
2023-12-23T06:26:00.686Z,4.62
2023-12-23T06:26:30.095Z,4.57
2023-12-23T06:27:03.115Z,4.62
2023-12-23T06:27:48.211Z,4.59
2023-12-23T06:28:00.113Z,4.62
2023-12-23T06:28:30.115Z,4.64
2023-12-23T06:29:00.142Z,4.62
2023-12-23T06:29:30.385Z,4.62
2023-12-23T06:30:00.055Z,4.64
2023-12-23T06:30:30.118Z,4.64
2023-12-23T06:31:00.106Z,4.62
2023-12-23T06:31:30.047Z,4.62
2023-12-23T06:32:00.632Z,4.64
2023-12-23T06:32:30.231Z,4.65
2023-12-23T06:33:03.151Z,4.64
2023-12-23T06:33:49.219Z,4.64
2023-12-23T06:34:00.125Z,4.64
2023-12-23T06:34:30.017Z,4.57
2023-12-23T06:35:00.027Z,4.56
2023-12-23T06:35:30.043Z,4.53
2023-12-23T06:36:01.545Z,4.51
2023-12-23T06:36:30.006Z,4.54
2023-12-23T06:36:59.970Z,4.53
2023-12-23T06:37:30.005Z,4.53
2023-12-23T06:38:00.031Z,4.54
2023-12-23T06:38:30.064Z,4.53
2023-12-23T06:39:03.022Z,4.56
2023-12-23T06:39:48.121Z,4.56